RJAN(METAR)
03/23 14:00
RJAN 230500Z 27007KT 9999 FEW035 SCT050 BKN/// 12/04 Q1014 RMK
A2997=
戻る
トップページへ戻る
IMOC Co,.Ltd.